Red Bird — WDH2451 — position and weather

sailwx.info

Track history (hours):
 
Tides and Currents Weather Stations Pressure Air Temp Water Temp Dewpoint Dewpoint Depression Visibility Wind Speed Wind Dir Waves Ship Positions

Red Bird

Owner: Red Bird Adventures, LLC, Newport Coast, CA. More information available from US FCC via Universal Licensing System.

Last reported at 2017-Dec-31 02:49 UTC. Time now 2018-Jan-20 01:35 UTC.
Position N 18°12' W 063°20'.
Warning: this ship's position is 19 days out of date.

Length 19 m.

MMSI: 367597740.

Date/timePositionNaut miles runAvg speedWind from/ knotsBaromVisibWave heightAir tempDewpointWater temp
2017-Dec-31 02:49N 18°12' W 063°20'3 8.0
2017-Dec-31 02:25N 18°12' W 063°16'6 0.6
2017-Dec-30 16:32N 18°10' W 063°11'0 8.1
2017-Dec-30 16:30N 18°10' W 063°11'84 1.8
2017-Dec-28 16:39N 17°06' W 062°13'2 8.0
2017-Dec-28 16:25N 17°05' W 062°11'21 1.0
2017-Dec-27 19:29N 16°60' W 061°49'3 5.6
2017-Dec-27 19:00N 17°01' W 061°47'0 0.0
2017-Dec-27 18:30N 17°01' W 061°47'0 0.0
2017-Dec-27 18:00N 17°01' W 061°47'0 0.0
2017-Dec-27 17:30N 17°01' W 061°47'0 0.0
2017-Dec-27 17:00N 17°01' W 061°47'0 0.7
2017-Dec-27 16:28N 17°01' W 061°46'0 0.0
2017-Dec-27 15:58N 17°01' W 061°46'0 0.0
2017-Dec-27 15:28N 17°01' W 061°46'0 0.0
2017-Dec-27 14:58N 17°01' W 061°46'0 0.1
2017-Dec-27 14:30N 17°01' W 061°46'0 0.1
2017-Dec-27 13:58N 17°01' W 061°46'0 0.0
2017-Dec-27 13:28N 17°01' W 061°46'0 0.0
2017-Dec-27 12:58N 17°01' W 061°46'  
2017-Dec-23 19:19N 17°01' W 061°46'0 0.0
2017-Dec-23 18:58N 17°01' W 061°46'0 0.0
2017-Dec-23 18:28N 17°01' W 061°46'0 0.0
2017-Dec-23 17:58N 17°01' W 061°46'0 0.0
2017-Dec-23 17:28N 17°01' W 061°46'0 0.0
2017-Dec-23 16:55N 17°01' W 061°46'0 0.0
2017-Dec-23 16:28N 17°01' W 061°46'0 0.0
2017-Dec-23 15:55N 17°01' W 061°46'0 0.0
2017-Dec-23 15:28N 17°01' W 061°46'0 0.0
2017-Dec-23 14:58N 17°01' W 061°46'0 0.3
2017-Dec-23 14:30N 17°01' W 061°46'0 0.8
2017-Dec-23 14:00N 17°01' W 061°47'0 0.0
2017-Dec-23 13:30N 17°01' W 061°47'0 0.0
2017-Dec-23 13:00N 17°01' W 061°47'0 0.0
2017-Dec-23 12:30N 17°01' W 061°47'0 0.0
2017-Dec-23 12:00N 17°01' W 061°47'0 0.0
2017-Dec-23 11:30N 17°01' W 061°47'0 0.0
2017-Dec-23 10:57N 17°01' W 061°47'0 0.0
2017-Dec-23 10:30N 17°01' W 061°47'0 0.0
2017-Dec-23 10:00N 17°01' W 061°47'0 0.0
2017-Dec-23 09:30N 17°01' W 061°47'0 0.0
2017-Dec-23 09:00N 17°01' W 061°47'0 0.0
2017-Dec-23 08:30N 17°01' W 061°47'0 0.0
2017-Dec-23 08:00N 17°01' W 061°47'0 0.0
2017-Dec-23 07:30N 17°01' W 061°47'0 0.0
2017-Dec-23 07:00N 17°01' W 061°47'0 0.0
2017-Dec-23 06:30N 17°01' W 061°47'0 0.0
2017-Dec-23 06:00N 17°01' W 061°47'0 0.0
2017-Dec-23 05:30N 17°01' W 061°47'0 0.0
2017-Dec-23 05:00N 17°01' W 061°47'0 0.0
2017-Dec-23 04:30N 17°01' W 061°47'0 0.0
2017-Dec-23 04:00N 17°01' W 061°47'0 0.0
2017-Dec-23 03:30N 17°01' W 061°47'0 0.0
2017-Dec-23 03:00N 17°01' W 061°47'0 0.0
2017-Dec-23 02:30N 17°01' W 061°47'0 0.0
2017-Dec-23 02:00N 17°01' W 061°47'0 0.0
2017-Dec-23 01:30N 17°01' W 061°47'0 0.0
2017-Dec-23 01:00N 17°01' W 061°47'0 0.0
2017-Dec-23 00:27N 17°01' W 061°47'0 0.0
2017-Dec-23 00:00N 17°01' W 061°47'0 0.0
2017-Dec-22 23:30N 17°01' W 061°47'0 0.0
2017-Dec-22 23:00N 17°01' W 061°47'2 3.6
2017-Dec-22 22:30N 16°60' W 061°48'3 5.4
2017-Dec-22 22:00N 16°60' W 061°51'3 5.8
2017-Dec-22 21:30N 17°01' W 061°54'4 7.2
2017-Dec-22 20:57N 17°03' W 061°57'4 8.6
2017-Dec-22 20:30N 17°05' W 062°00'4 8.3
2017-Dec-22 20:00N 17°07' W 062°04'4 8.1
2017-Dec-22 19:31N 17°10' W 062°08'4 7.9
2017-Dec-22 19:00N 17°12' W 062°11'4 7.9
2017-Dec-22 18:29N 17°15' W 062°14'51 7.2
2017-Dec-22 11:29N 17°46' W 062°56'3 6.7
2017-Dec-22 10:59N 17°48' W 062°59'4 6.9
2017-Dec-22 10:24N 17°50' W 063°02'3 7.0
2017-Dec-22 10:00N 17°52' W 063°05'4 6.9
2017-Dec-22 09:23N 17°55' W 063°08'3 6.7
2017-Dec-22 09:00N 17°56' W 063°10'3 6.8
2017-Dec-22 08:30N 17°58' W 063°13'4 7.0
2017-Dec-22 08:00N 18°00' W 063°16'4 7.0
2017-Dec-22 07:29N 18°03' W 063°19'4 7.0
2017-Dec-22 06:59N 18°05' W 063°22'  
Track history (hours):
 
Tides and Currents Weather Stations Pressure Air Temp Water Temp Dewpoint Dewpoint Depression Visibility Wind Speed Wind Dir Waves Ship Positions

Red Bird

Owner: Red Bird Adventures, LLC, Newport Coast, CA. More information available from US FCC via Universal Licensing System.

Last reported at 2017-Dec-31 02:49 UTC. Time now 2018-Jan-20 01:35 UTC.
Position N 18°12' W 063°20'.
Warning: this ship's position is 19 days out of date.

Length 19 m.

MMSI: 367597740.

Date/timePositionNaut miles runAvg speedWind from/ knotsBaromVisibWave heightAir tempDewpointWater temp
2017-Dec-31 02:49N 18°12' W 063°20'3 8.0
2017-Dec-31 02:25N 18°12' W 063°16'6 0.6
2017-Dec-30 16:32N 18°10' W 063°11'0 8.1
2017-Dec-30 16:30N 18°10' W 063°11'84 1.8
2017-Dec-28 16:39N 17°06' W 062°13'2 8.0
2017-Dec-28 16:25N 17°05' W 062°11'21 1.0
2017-Dec-27 19:29N 16°60' W 061°49'3 5.6
2017-Dec-27 19:00N 17°01' W 061°47'0 0.0
2017-Dec-27 18:30N 17°01' W 061°47'0 0.0
2017-Dec-27 18:00N 17°01' W 061°47'0 0.0
2017-Dec-27 17:30N 17°01' W 061°47'0 0.0
2017-Dec-27 17:00N 17°01' W 061°47'0 0.7
2017-Dec-27 16:28N 17°01' W 061°46'0 0.0
2017-Dec-27 15:58N 17°01' W 061°46'0 0.0
2017-Dec-27 15:28N 17°01' W 061°46'0 0.0
2017-Dec-27 14:58N 17°01' W 061°46'0 0.1
2017-Dec-27 14:30N 17°01' W 061°46'0 0.1
2017-Dec-27 13:58N 17°01' W 061°46'0 0.0
2017-Dec-27 13:28N 17°01' W 061°46'0 0.0
2017-Dec-27 12:58N 17°01' W 061°46'  
2017-Dec-23 19:19N 17°01' W 061°46'0 0.0
2017-Dec-23 18:58N 17°01' W 061°46'0 0.0
2017-Dec-23 18:28N 17°01' W 061°46'0 0.0
2017-Dec-23 17:58N 17°01' W 061°46'0 0.0
2017-Dec-23 17:28N 17°01' W 061°46'0 0.0
2017-Dec-23 16:55N 17°01' W 061°46'0 0.0
2017-Dec-23 16:28N 17°01' W 061°46'0 0.0
2017-Dec-23 15:55N 17°01' W 061°46'0 0.0
2017-Dec-23 15:28N 17°01' W 061°46'0 0.0
2017-Dec-23 14:58N 17°01' W 061°46'0 0.3
2017-Dec-23 14:30N 17°01' W 061°46'0 0.8
2017-Dec-23 14:00N 17°01' W 061°47'0 0.0
2017-Dec-23 13:30N 17°01' W 061°47'0 0.0
2017-Dec-23 13:00N 17°01' W 061°47'0 0.0
2017-Dec-23 12:30N 17°01' W 061°47'0 0.0
2017-Dec-23 12:00N 17°01' W 061°47'0 0.0
2017-Dec-23 11:30N 17°01' W 061°47'0 0.0
2017-Dec-23 10:57N 17°01' W 061°47'0 0.0
2017-Dec-23 10:30N 17°01' W 061°47'0 0.0
2017-Dec-23 10:00N 17°01' W 061°47'0 0.0
2017-Dec-23 09:30N 17°01' W 061°47'0 0.0
2017-Dec-23 09:00N 17°01' W 061°47'0 0.0
2017-Dec-23 08:30N 17°01' W 061°47'0 0.0
2017-Dec-23 08:00N 17°01' W 061°47'0 0.0
2017-Dec-23 07:30N 17°01' W 061°47'0 0.0
2017-Dec-23 07:00N 17°01' W 061°47'0 0.0
2017-Dec-23 06:30N 17°01' W 061°47'0 0.0
2017-Dec-23 06:00N 17°01' W 061°47'0 0.0
2017-Dec-23 05:30N 17°01' W 061°47'0 0.0
2017-Dec-23 05:00N 17°01' W 061°47'0 0.0
2017-Dec-23 04:30N 17°01' W 061°47'0 0.0
2017-Dec-23 04:00N 17°01' W 061°47'0 0.0
2017-Dec-23 03:30N 17°01' W 061°47'0 0.0
2017-Dec-23 03:00N 17°01' W 061°47'0 0.0
2017-Dec-23 02:30N 17°01' W 061°47'0 0.0
2017-Dec-23 02:00N 17°01' W 061°47'0 0.0
2017-Dec-23 01:30N 17°01' W 061°47'0 0.0
2017-Dec-23 01:00N 17°01' W 061°47'0 0.0
2017-Dec-23 00:27N 17°01' W 061°47'0 0.0
2017-Dec-23 00:00N 17°01' W 061°47'0 0.0
2017-Dec-22 23:30N 17°01' W 061°47'0 0.0
2017-Dec-22 23:00N 17°01' W 061°47'2 3.6
2017-Dec-22 22:30N 16°60' W 061°48'3 5.4
2017-Dec-22 22:00N 16°60' W 061°51'3 5.8
2017-Dec-22 21:30N 17°01' W 061°54'4 7.2
2017-Dec-22 20:57N 17°03' W 061°57'4 8.6
2017-Dec-22 20:30N 17°05' W 062°00'4 8.3
2017-Dec-22 20:00N 17°07' W 062°04'4 8.1
2017-Dec-22 19:31N 17°10' W 062°08'4 7.9
2017-Dec-22 19:00N 17°12' W 062°11'4 7.9
2017-Dec-22 18:29N 17°15' W 062°14'51 7.2
2017-Dec-22 11:29N 17°46' W 062°56'3 6.7
2017-Dec-22 10:59N 17°48' W 062°59'4 6.9
2017-Dec-22 10:24N 17°50' W 063°02'3 7.0
2017-Dec-22 10:00N 17°52' W 063°05'4 6.9
2017-Dec-22 09:23N 17°55' W 063°08'3 6.7
2017-Dec-22 09:00N 17°56' W 063°10'3 6.8
2017-Dec-22 08:30N 17°58' W 063°13'4 7.0
2017-Dec-22 08:00N 18°00' W 063°16'4 7.0
2017-Dec-22 07:29N 18°03' W 063°19'4 7.0
2017-Dec-22 06:59N 18°05' W 063°22'  

Dump ship's entire track history